Aviation Digital Data Service (ADDS)

Output produced by TAFs form (0440 UTC 03 March 2015)
found at http://aviationweather.gov/adds/tafs/
 
KTEX 030411Z 0304/0324 23012G30KT 3SM -SN SCT009 OVC070 WS020/24045KT 
     TEMPO 0304/0305 2SM -SN BR SCT009 BKN050 
     FM030500 23012G24KT 1SM -SN BR BKN006 
     FM031200 20007KT 3SM -SN BR SCT006 OVC015 
     FM031900 24015G25KT 4SM -SN BR SCT015 OVC030